Time;durP1;ratioP1;P1;durP2;ratioP2;P2;SDS_P1;SDS_P2;PMS_P1;PMS_P2;Temp;Humidity;BMP_temperature;BMP_pressure;BME280_temperature;BME280_humidity;BME280_pressure;Samples;Min_cycle;Max_cycle;Signal;HPM_P1;HPM_P2
2024/02/12 00:00:18;;;;;;;10.25;3.60;;;10.20;99.90;;;;;;2082637;28;20057;-73
2024/02/12 00:01:28;;;;;;;5.38;3.55;;;10.20;99.90;;;;;;2086094;28;20084;-74
2024/02/12 00:02:28;;;;;;;7.50;4.13;;;10.20;99.90;;;;;;2082929;28;20009;-72
2024/02/12 00:03:31;;;;;;;8.82;3.72;;;10.20;99.90;;;;;;2087512;28;20051;-73
2024/02/12 00:04:37;;;;;;;5.72;4.00;;;10.20;99.90;;;;;;2085025;28;20021;-74
2024/02/12 00:05:38;;;;;;;7.13;3.78;;;10.20;99.90;;;;;;2083303;28;20024;-74
2024/02/12 00:06:38;;;;;;;5.18;3.90;;;10.20;99.90;;;;;;2083492;28;20045;-74
2024/02/12 00:07:39;;;;;;;5.75;3.47;;;10.20;99.90;;;;;;2084138;28;20021;-74
2024/02/12 00:08:43;;;;;;;5.30;4.00;;;10.20;99.90;;;;;;2083017;28;20096;-73
2024/02/12 00:09:47;;;;;;;5.75;3.70;;;10.20;99.90;;;;;;2084097;28;20545;-74
2024/02/12 00:10:48;;;;;;;7.45;4.57;;;10.20;99.90;;;;;;2074521;28;20061;-73
2024/02/12 00:11:55;;;;;;;6.30;4.47;;;10.20;99.90;;;;;;2076530;28;20585;-74
2024/02/12 00:12:58;;;;;;;8.25;4.40;;;10.20;99.90;;;;;;2084627;28;20037;-74
2024/02/12 00:14:00;;;;;;;6.60;4.55;;;10.20;99.90;;;;;;2086432;28;20028;-73
2024/02/12 00:15:03;;;;;;;7.43;4.88;;;10.20;99.90;;;;;;2084830;28;20017;-73
2024/02/12 00:16:05;;;;;;;6.72;4.75;;;10.20;99.90;;;;;;2084174;28;20041;-73
2024/02/12 00:17:09;;;;;;;8.63;4.90;;;10.20;99.90;;;;;;2083467;28;20084;-73
2024/02/12 00:18:10;;;;;;;6.00;4.82;;;10.30;99.90;;;;;;2085653;28;20064;-74
2024/02/12 00:19:11;;;;;;;7.93;5.00;;;10.20;99.90;;;;;;2084534;28;20499;-73
2024/02/12 00:20:12;;;;;;;12.32;5.65;;;10.20;99.90;;;;;;2078596;28;20021;-73
2024/02/12 00:21:14;;;;;;;6.85;5.07;;;10.20;99.90;;;;;;2077907;28;20323;-74
2024/02/12 00:22:15;;;;;;;9.07;5.90;;;10.20;99.90;;;;;;2083860;28;20021;-73
2024/02/12 00:23:15;;;;;;;7.22;5.80;;;10.20;99.90;;;;;;2085405;28;20025;-74
2024/02/12 00:24:17;;;;;;;9.00;6.25;;;10.20;99.90;;;;;;2083710;28;20021;-73
2024/02/12 00:25:17;;;;;;;8.50;5.78;;;10.20;99.90;;;;;;2081988;28;20612;-74
2024/02/12 00:26:25;;;;;;;6.68;5.97;;;10.20;99.90;;;;;;2083717;28;20504;-73
2024/02/12 00:27:27;;;;;;;6.85;5.65;;;10.20;99.90;;;;;;2083693;28;20025;-74
2024/02/12 00:28:28;;;;;;;6.97;6.05;;;10.20;99.90;;;;;;2084883;28;20164;-74
2024/02/12 00:29:51;;;;;;;9.50;5.93;;;10.20;99.90;;;;;;2083290;28;20481;-74
2024/02/12 00:30:50;;;;;;;6.45;5.45;;;10.20;99.90;;;;;;2086264;28;20035;-74
2024/02/12 00:31:51;;;;;;;6.47;5.40;;;10.20;99.90;;;;;;2083263;28;20040;-73
2024/02/12 00:32:54;;;;;;;6.95;6.13;;;10.20;99.90;;;;;;2083355;28;20030;-73
2024/02/12 00:33:55;;;;;;;6.78;5.55;;;10.20;99.90;;;;;;2083374;28;20017;-73
2024/02/12 00:34:57;;;;;;;7.70;5.72;;;10.20;99.90;;;;;;2084345;28;20036;-73
2024/02/12 00:35:58;;;;;;;9.73;5.72;;;10.20;99.90;;;;;;2083830;28;20028;-73
2024/02/12 00:37:00;;;;;;;8.55;5.80;;;10.20;99.90;;;;;;2086346;28;20026;-73
2024/02/12 00:38:00;;;;;;;7.07;5.80;;;10.20;99.90;;;;;;2086517;28;20048;-74
2024/02/12 00:39:09;;;;;;;7.07;5.78;;;10.20;99.90;;;;;;2085200;28;20108;-74
2024/02/12 00:40:10;;;;;;;7.53;5.70;;;10.20;99.90;;;;;;2089482;28;20021;-74
2024/02/12 00:41:14;;;;;;;8.07;6.45;;;10.20;99.90;;;;;;2087448;28;20055;-74
2024/02/12 00:42:15;;;;;;;6.30;5.68;;;10.20;99.90;;;;;;2083816;28;20548;-73
2024/02/12 00:43:15;;;;;;;9.43;5.90;;;10.20;99.90;;;;;;2086464;28;20431;-74
2024/02/12 00:44:17;;;;;;;8.00;6.82;;;10.20;99.90;;;;;;2083626;28;20018;-74
2024/02/12 00:45:18;;;;;;;6.80;5.78;;;10.20;99.90;;;;;;2086317;28;20021;-74
2024/02/12 00:46:18;;;;;;;7.57;5.53;;;10.20;99.90;;;;;;2086171;28;20025;-74
2024/02/12 00:47:19;;;;;;;10.15;6.53;;;10.20;99.90;;;;;;2086603;28;20502;-74
2024/02/12 00:48:19;;;;;;;9.70;6.72;;;10.20;99.90;;;;;;2087292;28;20525;-74
2024/02/12 00:49:20;;;;;;;6.82;5.70;;;10.20;99.90;;;;;;2084312;28;20018;-74
2024/02/12 00:50:20;;;;;;;7.75;6.25;;;10.20;99.90;;;;;;2078882;28;20903;-73
2024/02/12 00:51:22;;;;;;;12.25;6.70;;;10.20;99.90;;;;;;2077890;28;20021;-74
2024/02/12 00:52:23;;;;;;;9.80;6.75;;;10.20;99.90;;;;;;2085798;28;20086;-73
2024/02/12 00:53:24;;;;;;;8.23;6.78;;;10.20;99.90;;;;;;2088203;28;20016;-74
2024/02/12 00:54:26;;;;;;;8.27;7.32;;;10.20;99.90;;;;;;2087326;28;20037;-74
2024/02/12 00:55:27;;;;;;;10.77;7.53;;;10.20;99.90;;;;;;2086679;28;20074;-74
2024/02/12 00:56:27;;;;;;;8.75;7.18;;;10.20;99.90;;;;;;2085116;28;20025;-74
2024/02/12 00:57:28;;;;;;;9.25;7.45;;;10.20;99.90;;;;;;2085375;28;20124;-73
2024/02/12 00:58:29;;;;;;;9.02;6.85;;;10.20;99.90;;;;;;2083853;28;20545;-72
2024/02/12 00:59:30;;;;;;;7.63;6.45;;;10.20;99.90;;;;;;2085664;28;20026;-74
2024/02/12 01:00:30;;;;;;;8.65;6.95;;;10.20;99.90;;;;;;2082977;28;20115;-74
2024/02/12 01:01:33;;;;;;;11.00;7.35;;;10.20;99.90;;;;;;2084608;28;20036;-74
2024/02/12 01:02:35;;;;;;;11.65;8.02;;;10.20;99.90;;;;;;2086156;28;20025;-74
2024/02/12 01:03:36;;;;;;;11.25;7.53;;;10.20;99.90;;;;;;2084837;28;20041;-74
2024/02/12 01:04:37;;;;;;;10.23;7.53;;;10.20;99.90;;;;;;2084707;28;21510;-74
2024/02/12 01:05:37;;;;;;;9.50;7.20;;;10.20;99.90;;;;;;2084345;28;20032;-74
2024/02/12 01:06:41;;;;;;;10.45;7.78;;;10.10;99.90;;;;;;2085381;28;20506;-74
2024/02/12 01:07:42;;;;;;;10.23;8.07;;;10.10;99.90;;;;;;2085563;28;20021;-73
2024/02/12 01:08:43;;;;;;;10.65;7.30;;;10.10;99.90;;;;;;2087301;28;20032;-74
2024/02/12 01:09:44;;;;;;;9.43;8.15;;;10.10;99.90;;;;;;2085924;28;20100;-74
2024/02/12 01:10:45;;;;;;;12.20;8.00;;;10.10;99.90;;;;;;2084619;28;20131;-74
2024/02/12 01:11:45;;;;;;;10.25;7.47;;;10.10;99.90;;;;;;2084112;28;20030;-74
2024/02/12 01:12:47;;;;;;;9.25;7.50;;;10.20;99.90;;;;;;2085999;28;20028;-73
2024/02/12 01:13:48;;;;;;;9.18;8.05;;;10.10;99.90;;;;;;2086256;28;20029;-73
2024/02/12 01:14:48;;;;;;;11.00;7.93;;;10.10;99.90;;;;;;2085483;28;20043;-74
2024/02/12 01:15:49;;;;;;;10.93;7.93;;;10.10;99.90;;;;;;2085969;28;20025;-74
2024/02/12 01:16:50;;;;;;;9.57;8.38;;;10.10;99.90;;;;;;2085838;28;20397;-74
2024/02/12 01:17:51;;;;;;;10.15;8.80;;;10.10;99.90;;;;;;2086712;28;20033;-74
2024/02/12 01:18:58;;;;;;;10.43;7.85;;;10.20;99.90;;;;;;2086337;28;20025;-73
2024/02/12 01:20:01;;;;;;;13.18;9.02;;;10.10;99.90;;;;;;2086004;28;20033;-73
2024/02/12 01:21:03;;;;;;;9.63;8.07;;;10.10;99.90;;;;;;2077638;28;20034;-73
2024/02/12 01:22:06;;;;;;;10.73;8.23;;;10.10;99.90;;;;;;2077528;28;20124;-74
2024/02/12 01:23:10;;;;;;;11.57;8.23;;;10.20;99.90;;;;;;2086611;28;20033;-74
2024/02/12 01:24:14;;;;;;;10.38;8.10;;;10.20;99.90;;;;;;2085754;28;20027;-74
2024/02/12 01:25:20;;;;;;;9.57;8.57;;;10.20;99.90;;;;;;2082628;28;20037;-74
2024/02/12 01:26:21;;;;;;;9.55;8.63;;;10.20;99.90;;;;;;2084217;28;20151;-74
2024/02/12 01:27:23;;;;;;;10.10;8.88;;;10.10;99.90;;;;;;2086753;28;20033;-73
2024/02/12 01:28:24;;;;;;;11.63;8.93;;;10.10;99.90;;;;;;2085921;28;20021;-73
2024/02/12 01:29:25;;;;;;;11.80;9.38;;;10.10;99.90;;;;;;2083895;28;20710;-74
2024/02/12 01:30:28;;;;;;;10.65;9.18;;;10.20;99.90;;;;;;2086826;28;20017;-73
2024/02/12 01:31:29;;;;;;;10.85;9.05;;;10.10;99.90;;;;;;2085056;28;20067;-73
2024/02/12 01:32:30;;;;;;;11.40;9.10;;;10.10;99.90;;;;;;2076767;28;20085;-73
2024/02/12 01:33:31;;;;;;;11.45;9.07;;;10.20;99.90;;;;;;2075515;28;20021;-74
2024/02/12 01:34:34;;;;;;;11.40;9.77;;;10.20;99.90;;;;;;2084402;28;20029;-73
2024/02/12 01:35:37;;;;;;;11.45;8.75;;;10.20;99.90;;;;;;2077289;28;20033;-73
2024/02/12 01:36:38;;;;;;;11.70;9.57;;;10.20;99.90;;;;;;2077189;28;20061;-74
2024/02/12 01:37:39;;;;;;;11.23;9.30;;;10.20;99.90;;;;;;2086336;28;20021;-74
2024/02/12 01:38:45;;;;;;;12.68;10.23;;;10.20;99.90;;;;;;2080986;28;20478;-74
2024/02/12 01:39:49;;;;;;;12.13;9.15;;;10.20;99.90;;;;;;2081037;28;21402;-74
2024/02/12 01:40:49;;;;;;;12.60;9.65;;;10.20;99.90;;;;;;2086317;28;20041;-74
2024/02/12 01:41:50;;;;;;;13.85;10.75;;;10.20;99.90;;;;;;2086031;28;20029;-73
2024/02/12 01:42:53;;;;;;;11.48;9.77;;;10.20;99.90;;;;;;2084079;28;20461;-73
2024/02/12 01:43:53;;;;;;;12.20;9.38;;;10.20;99.90;;;;;;2083166;28;20033;-72
2024/02/12 01:45:11;;;;;;;13.15;9.70;;;10.20;99.90;;;;;;2085917;28;20187;-73
2024/02/12 01:46:12;;;;;;;14.48;11.15;;;10.20;99.90;;;;;;2085032;28;20033;-73
2024/02/12 01:47:17;;;;;;;16.00;11.20;;;10.20;99.90;;;;;;2085520;28;20025;-72
2024/02/12 01:48:19;;;;;;;17.58;11.63;;;10.20;99.90;;;;;;2085750;28;20494;-74
2024/02/12 01:49:19;;;;;;;14.00;11.77;;;10.20;99.90;;;;;;2086097;28;20382;-73
2024/02/12 01:50:20;;;;;;;14.90;12.32;;;10.20;99.90;;;;;;2084303;28;20453;-72
2024/02/12 01:51:21;;;;;;;13.70;12.30;;;10.20;99.90;;;;;;2086177;28;20035;-73
2024/02/12 01:52:23;;;;;;;16.75;12.55;;;10.20;99.90;;;;;;2086176;28;20026;-73
2024/02/12 01:53:24;;;;;;;14.50;12.07;;;10.20;99.90;;;;;;2085337;28;20108;-73
2024/02/12 01:54:24;;;;;;;15.20;12.52;;;10.20;99.90;;;;;;2084495;28;20505;-73
2024/02/12 01:55:27;;;;;;;13.05;11.25;;;10.20;99.90;;;;;;2083756;28;20434;-73
2024/02/12 01:56:30;;;;;;;14.77;12.45;;;10.20;99.90;;;;;;2085966;28;20029;-73
2024/02/12 01:57:33;;;;;;;15.13;12.88;;;10.20;99.90;;;;;;2083913;28;20150;-73
2024/02/12 01:58:41;;;;;;;16.05;12.38;;;10.20;99.90;;;;;;2085533;28;20025;-74
2024/02/12 01:59:42;;;;;;;14.23;11.82;;;10.20;99.90;;;;;;2083371;28;20079;-72
2024/02/12 02:00:44;;;;;;;14.65;12.50;;;10.20;99.90;;;;;;2085412;28;20032;-73
2024/02/12 02:01:47;;;;;;;16.10;13.45;;;10.20;99.90;;;;;;2085166;28;20033;-73
2024/02/12 02:02:48;;;;;;;15.45;12.40;;;10.20;99.90;;;;;;2077868;28;20049;-73
2024/02/12 02:03:48;;;;;;;16.13;12.73;;;10.20;99.90;;;;;;2078258;28;20053;-73
2024/02/12 02:04:49;;;;;;;13.88;12.02;;;10.20;99.90;;;;;;2083144;28;20048;-73
2024/02/12 02:05:49;;;;;;;15.95;12.25;;;10.20;99.90;;;;;;2082097;28;20045;-73
2024/02/12 02:06:55;;;;;;;16.58;13.02;;;10.20;99.90;;;;;;2084678;28;20037;-73
2024/02/12 02:07:56;;;;;;;15.38;13.10;;;10.20;99.90;;;;;;2086315;28;20095;-73
2024/02/12 02:08:58;;;;;;;16.17;12.15;;;10.20;99.90;;;;;;2084319;28;20544;-73
2024/02/12 02:09:58;;;;;;;13.88;12.23;;;10.20;99.90;;;;;;2084839;28;20017;-73
2024/02/12 02:10:59;;;;;;;14.95;12.40;;;10.20;99.90;;;;;;2085222;28;20140;-73
2024/02/12 02:12:02;;;;;;;15.57;12.52;;;10.20;99.90;;;;;;2084056;28;20586;-72
2024/02/12 02:13:03;;;;;;;15.80;11.77;;;10.20;99.90;;;;;;2084252;28;20472;-73
2024/02/12 02:14:03;;;;;;;15.13;12.55;;;10.20;99.90;;;;;;2085167;28;20023;-72
2024/02/12 02:15:05;;;;;;;14.82;12.25;;;10.20;99.90;;;;;;2084790;28;20036;-72
2024/02/12 02:16:06;;;;;;;14.73;12.20;;;10.20;99.90;;;;;;2084938;28;20551;-73
2024/02/12 02:17:07;;;;;;;14.27;12.60;;;10.20;99.90;;;;;;2086161;28;20420;-73
2024/02/12 02:18:08;;;;;;;17.23;12.23;;;10.20;99.90;;;;;;2083919;28;20021;-73
2024/02/12 02:19:09;;;;;;;14.60;12.15;;;10.20;99.90;;;;;;2084423;28;20025;-73
2024/02/12 02:20:12;;;;;;;15.90;12.52;;;10.20;99.90;;;;;;2082285;28;20035;-73
2024/02/12 02:21:12;;;;;;;14.90;13.23;;;10.20;99.90;;;;;;2074472;28;20036;-73
2024/02/12 02:22:16;;;;;;;16.98;12.30;;;10.30;99.90;;;;;;2077388;28;20102;-73
2024/02/12 02:23:16;;;;;;;15.27;11.90;;;10.30;99.90;;;;;;2086524;28;20052;-73
2024/02/12 02:24:18;;;;;;;19.17;12.52;;;10.30;99.90;;;;;;2084216;28;20021;-72
2024/02/12 02:25:20;;;;;;;15.70;12.85;;;10.30;99.90;;;;;;2084969;28;20079;-73
2024/02/12 02:26:20;;;;;;;16.17;13.18;;;10.30;99.90;;;;;;2085382;28;20113;-73
2024/02/12 02:27:21;;;;;;;14.93;12.45;;;10.30;99.90;;;;;;2084059;28;20455;-73
2024/02/12 02:28:25;;;;;;;16.55;13.50;;;10.30;99.90;;;;;;2084339;28;20029;-74
2024/02/12 02:29:25;;;;;;;17.50;13.93;;;10.30;99.90;;;;;;2084694;28;20028;-72
2024/02/12 02:30:26;;;;;;;18.80;14.23;;;10.30;99.90;;;;;;2084003;28;20036;-72
2024/02/12 02:31:26;;;;;;;17.83;14.25;;;10.30;99.90;;;;;;2086850;28;20458;-73
2024/02/12 02:32:27;;;;;;;17.08;15.10;;;10.30;99.90;;;;;;2083645;28;20301;-73
2024/02/12 02:33:27;;;;;;;19.40;14.90;;;10.30;99.90;;;;;;2080246;28;20029;-73
2024/02/12 02:34:28;;;;;;;19.10;15.65;;;10.30;99.90;;;;;;2078527;28;20029;-73
2024/02/12 02:35:30;;;;;;;21.48;16.17;;;10.30;99.90;;;;;;2082938;28;20034;-72
2024/02/12 02:36:30;;;;;;;21.75;16.00;;;10.30;99.90;;;;;;2085612;28;20583;-73
2024/02/12 02:37:31;;;;;;;22.05;17.52;;;10.30;99.90;;;;;;2084334;28;20030;-73
2024/02/12 02:38:32;;;;;;;23.35;18.17;;;10.30;99.90;;;;;;2084208;28;20628;-73
2024/02/12 02:39:33;;;;;;;21.33;18.13;;;10.30;99.90;;;;;;2085181;28;20112;-73
2024/02/12 02:40:34;;;;;;;24.00;18.88;;;10.30;99.90;;;;;;2083220;28;20108;-73
2024/02/12 02:41:35;;;;;;;19.52;17.33;;;10.20;99.90;;;;;;2085488;28;20067;-74
2024/02/12 02:42:38;;;;;;;20.77;17.75;;;10.20;99.90;;;;;;2085655;28;20037;-73
2024/02/12 02:43:41;;;;;;;21.58;18.20;;;10.20;99.90;;;;;;2084776;28;20752;-73
2024/02/12 02:44:43;;;;;;;22.88;18.65;;;10.20;99.90;;;;;;2086359;28;20172;-73
2024/02/12 02:45:43;;;;;;;21.75;18.58;;;10.20;99.90;;;;;;2076321;28;20030;-73
2024/02/12 02:46:46;;;;;;;25.45;19.23;;;10.20;99.90;;;;;;2076678;28;20112;-73
2024/02/12 02:47:49;;;;;;;23.90;18.77;;;10.20;99.90;;;;;;2083216;28;20029;-73
2024/02/12 02:48:50;;;;;;;25.13;19.65;;;10.20;99.90;;;;;;2084760;28;20029;-73
2024/02/12 02:49:50;;;;;;;24.20;18.67;;;10.20;99.90;;;;;;2086584;28;20024;-73
2024/02/12 02:50:52;;;;;;;23.30;19.20;;;10.20;99.90;;;;;;2084660;28;20408;-73
2024/02/12 02:51:53;;;;;;;21.73;18.48;;;10.20;99.90;;;;;;2082503;28;20369;-74
2024/02/12 02:52:53;;;;;;;21.25;17.73;;;10.20;99.90;;;;;;2087576;28;20033;-73
2024/02/12 02:53:54;;;;;;;24.33;19.08;;;10.20;99.90;;;;;;2074609;28;20029;-72
2024/02/12 02:54:55;;;;;;;23.83;18.88;;;10.20;99.90;;;;;;2077496;28;20036;-74
2024/02/12 02:55:55;;;;;;;22.58;19.60;;;10.20;99.90;;;;;;2078078;28;20657;-73
2024/02/12 02:56:57;;;;;;;22.55;18.80;;;10.20;99.90;;;;;;2077552;28;20041;-73
2024/02/12 02:58:01;;;;;;;20.38;17.85;;;10.20;99.90;;;;;;2068914;28;20404;-73
2024/02/12 02:59:03;;;;;;;21.33;18.52;;;10.20;99.90;;;;;;2075413;28;20676;-72
2024/02/12 03:00:05;;;;;;;21.85;18.58;;;10.20;99.90;;;;;;2084046;28;20051;-73
2024/02/12 03:01:05;;;;;;;20.98;17.50;;;10.20;99.90;;;;;;2083481;28;20025;-73
2024/02/12 03:02:12;;;;;;;20.50;17.88;;;10.20;99.90;;;;;;2086774;28;20541;-73
2024/02/12 03:03:13;;;;;;;23.45;17.70;;;10.20;99.90;;;;;;2085765;28;20480;-73
2024/02/12 03:04:13;;;;;;;21.45;16.85;;;10.20;99.90;;;;;;2082876;28;20433;-73
2024/02/12 03:05:14;;;;;;;20.02;16.95;;;10.20;99.90;;;;;;2082955;28;20063;-73
2024/02/12 03:06:15;;;;;;;23.38;19.25;;;10.20;99.90;;;;;;2085429;28;20037;-73
2024/02/12 03:07:16;;;;;;;22.80;17.92;;;10.20;99.90;;;;;;2085808;28;20477;-73
2024/02/12 03:08:17;;;;;;;21.75;17.55;;;10.20;99.90;;;;;;2083858;28;20039;-73
2024/02/12 03:09:21;;;;;;;21.48;17.90;;;10.20;99.90;;;;;;2085757;28;20108;-73
2024/02/12 03:10:21;;;;;;;23.67;17.70;;;10.20;99.90;;;;;;2068953;28;20129;-73
2024/02/12 03:11:23;;;;;;;24.58;19.23;;;10.20;99.90;;;;;;2070105;28;20026;-74
2024/02/12 03:12:26;;;;;;;21.92;18.92;;;10.20;99.90;;;;;;2079961;28;20028;-73
2024/02/12 03:13:30;;;;;;;23.75;19.02;;;10.20;99.90;;;;;;2079745;28;20025;-73
2024/02/12 03:14:31;;;;;;;25.58;17.98;;;10.20;99.90;;;;;;2085730;28;20021;-73
2024/02/12 03:15:35;;;;;;;23.63;18.33;;;10.30;99.90;;;;;;2085679;28;20021;-73
2024/02/12 03:16:36;;;;;;;26.73;20.25;;;10.20;99.90;;;;;;2068876;28;20181;-73
2024/02/12 03:17:44;;;;;;;23.77;18.80;;;10.30;99.90;;;;;;2072517;28;20045;-73
2024/02/12 03:18:48;;;;;;;23.73;19.63;;;10.30;99.90;;;;;;2079257;28;20060;-73
2024/02/12 03:19:49;;;;;;;25.48;19.60;;;10.20;99.90;;;;;;2079613;28;20144;-73
2024/02/12 03:20:49;;;;;;;27.55;19.95;;;10.20;99.90;;;;;;2086615;28;20030;-73
2024/02/12 03:21:50;;;;;;;22.05;18.27;;;10.20;99.90;;;;;;2086260;28;20037;-73
2024/02/12 03:22:51;;;;;;;24.35;19.75;;;10.20;99.90;;;;;;2084139;28;20041;-73
2024/02/12 03:23:53;;;;;;;24.42;19.60;;;10.20;99.90;;;;;;2077626;28;20124;-73
2024/02/12 03:25:00;;;;;;;27.90;20.80;;;10.20;99.90;;;;;;2073829;28;20030;-74
2024/02/12 03:26:02;;;;;;;24.20;19.13;;;10.20;99.90;;;;;;2081934;28;20032;-73
2024/02/12 03:27:05;;;;;;;30.00;21.42;;;10.20;99.90;;;;;;2085055;28;20025;-73
2024/02/12 03:28:06;;;;;;;26.35;21.10;;;10.20;99.90;;;;;;2076115;28;20032;-72
2024/02/12 03:29:07;;;;;;;24.95;20.85;;;10.20;99.90;;;;;;2075774;28;20100;-73
2024/02/12 03:30:09;;;;;;;27.77;21.52;;;10.20;99.90;;;;;;2076396;28;20017;-74
2024/02/12 03:31:11;;;;;;;28.33;21.00;;;10.20;99.90;;;;;;2077538;28;20037;-73
2024/02/12 03:32:12;;;;;;;26.52;20.20;;;10.20;99.90;;;;;;2085215;28;20470;-68
2024/02/12 03:33:12;;;;;;;26.80;20.85;;;10.30;99.90;;;;;;2085032;28;20033;-69
2024/02/12 03:34:14;;;;;;;30.48;22.17;;;10.30;99.90;;;;;;2084389;28;20071;-69
2024/02/12 03:35:17;;;;;;;29.75;22.00;;;10.30;99.90;;;;;;2084469;28;20102;-68
2024/02/12 03:36:20;;;;;;;29.85;22.17;;;10.30;99.90;;;;;;2085238;28;20493;-68
2024/02/12 03:37:21;;;;;;;30.58;23.05;;;10.30;99.90;;;;;;2084692;28;20033;-68
2024/02/12 03:38:24;;;;;;;29.52;22.60;;;10.30;99.90;;;;;;2083617;28;20041;-69
2024/02/12 03:39:26;;;;;;;31.20;22.38;;;10.20;99.90;;;;;;2083615;28;20029;-69
2024/02/12 03:40:28;;;;;;;31.35;21.88;;;10.20;99.90;;;;;;2082090;28;20105;-68
2024/02/12 03:41:28;;;;;;;26.45;21.58;;;10.20;99.90;;;;;;2083848;28;20029;-69
2024/02/12 03:42:29;;;;;;;30.17;22.83;;;10.30;99.90;;;;;;2084162;28;20037;-69
2024/02/12 03:43:29;;;;;;;30.30;22.65;;;10.30;99.90;;;;;;2083924;28;20021;-72
2024/02/12 03:44:30;;;;;;;29.30;22.65;;;10.30;99.90;;;;;;2082909;28;20021;-73
2024/02/12 03:45:34;;;;;;;32.28;22.40;;;10.30;99.90;;;;;;2085365;28;20601;-73
2024/02/12 03:46:39;;;;;;;32.90;24.48;;;10.30;99.90;;;;;;2083409;28;20041;-74
2024/02/12 03:47:39;;;;;;;32.20;22.95;;;10.30;99.90;;;;;;2079564;28;20037;-73
2024/02/12 04:00:48;;;;;;;38.05;25.63;;;10.20;99.90;;;;;;2083572;28;20033;-73
2024/02/12 04:01:49;;;;;;;33.03;23.02;;;10.20;99.90;;;;;;2076795;28;20043;-73
2024/02/12 04:02:49;;;;;;;34.03;25.00;;;10.30;99.90;;;;;;2078354;28;20706;-73
2024/02/12 04:03:50;;;;;;;31.67;24.85;;;10.20;99.90;;;;;;2085232;28;20399;-73
2024/02/12 04:04:51;;;;;;;39.13;26.92;;;10.30;99.90;;;;;;2083081;28;20028;-74
2024/02/12 04:05:51;;;;;;;35.05;24.83;;;10.30;99.90;;;;;;2082459;28;20031;-73
2024/02/12 04:06:52;;;;;;;32.90;24.70;;;10.20;99.90;;;;;;2085708;28;20047;-74
2024/02/12 04:07:53;;;;;;;33.80;25.80;;;10.30;99.90;;;;;;2084539;28;20033;-73
2024/02/12 04:08:53;;;;;;;34.70;26.20;;;10.30;99.90;;;;;;2086315;28;20083;-73
2024/02/12 04:09:54;;;;;;;35.65;26.85;;;10.30;99.90;;;;;;2084442;28;20465;-73
2024/02/12 04:10:55;;;;;;;36.60;27.60;;;10.30;99.90;;;;;;2083598;28;20021;-73
2024/02/12 04:11:55;;;;;;;36.35;27.65;;;10.30;99.90;;;;;;2085024;28;20018;-73
2024/02/12 04:12:56;;;;;;;38.72;28.52;;;10.30;99.90;;;;;;2081966;28;20465;-73
2024/02/12 04:13:57;;;;;;;42.35;28.70;;;10.20;99.90;;;;;;2084420;28;20036;-74
2024/02/12 04:14:57;;;;;;;41.13;28.17;;;10.30;99.90;;;;;;2084286;28;20043;-73
2024/02/12 04:15:59;;;;;;;40.17;29.85;;;10.30;99.90;;;;;;2082617;28;20034;-73
2024/02/12 04:16:59;;;;;;;41.78;29.30;;;10.30;99.90;;;;;;2084151;28;20029;-72
2024/02/12 04:17:59;;;;;;;38.08;28.80;;;10.30;99.90;;;;;;2083587;28;20033;-73
2024/02/12 04:19:00;;;;;;;40.22;30.13;;;10.30;99.90;;;;;;2083793;28;20028;-73
2024/02/12 04:20:05;;;;;;;41.10;29.92;;;10.20;99.90;;;;;;2084464;28;20032;-73
2024/02/12 04:21:08;;;;;;;43.50;30.77;;;10.20;99.90;;;;;;2082518;28;20029;-73
2024/02/12 04:22:14;;;;;;;42.53;30.80;;;10.20;99.90;;;;;;2083476;28;20662;-74
2024/02/12 04:23:16;;;;;;;41.60;31.40;;;10.20;99.90;;;;;;2085550;28;20366;-73
2024/02/12 04:24:18;;;;;;;45.10;31.52;;;10.20;99.90;;;;;;2082137;28;20025;-73
2024/02/12 04:25:19;;;;;;;42.47;31.48;;;10.20;99.90;;;;;;2084175;28;20057;-73
2024/02/12 04:26:21;;;;;;;42.38;32.20;;;10.20;99.90;;;;;;2083233;28;20029;-73
2024/02/12 04:27:22;;;;;;;42.22;30.92;;;10.20;99.90;;;;;;2082337;28;20028;-73
2024/02/12 04:28:23;;;;;;;44.30;31.45;;;10.20;99.90;;;;;;2082436;28;20020;-73
2024/02/12 04:29:26;;;;;;;44.85;32.30;;;10.20;99.90;;;;;;2084527;28;20021;-73
2024/02/12 04:30:29;;;;;;;42.83;32.25;;;10.10;99.90;;;;;;2083001;28;20029;-73
2024/02/12 04:31:35;;;;;;;42.72;31.25;;;10.20;99.90;;;;;;2076543;28;20089;-74
2024/02/12 04:32:35;;;;;;;48.38;32.22;;;10.10;99.90;;;;;;2076761;28;20498;-73
2024/02/12 04:33:40;;;;;;;42.22;31.65;;;10.10;99.90;;;;;;2084949;28;20025;-73
2024/02/12 04:34:41;;;;;;;42.42;31.75;;;10.10;99.90;;;;;;2084794;28;20036;-73
2024/02/12 04:35:41;;;;;;;47.03;33.65;;;10.10;99.90;;;;;;2083154;28;20018;-74
2024/02/12 04:36:42;;;;;;;46.03;33.20;;;10.10;99.90;;;;;;2082031;28;20025;-73
2024/02/12 04:37:45;;;;;;;41.50;30.90;;;10.10;99.90;;;;;;2083699;28;20039;-73
2024/02/12 04:38:45;;;;;;;46.47;31.73;;;10.20;99.90;;;;;;2082625;28;20029;-73
2024/02/12 04:39:48;;;;;;;39.67;30.92;;;10.10;99.90;;;;;;2079331;28;20172;-74
2024/02/12 04:40:49;;;;;;;48.38;31.20;;;10.10;99.90;;;;;;2070603;28;20030;-74
2024/02/12 04:41:51;;;;;;;41.80;31.52;;;10.20;99.90;;;;;;2075875;28;20030;-73
2024/02/12 04:42:56;;;;;;;44.08;31.13;;;10.20;99.90;;;;;;2086336;28;20054;-73
2024/02/12 04:43:57;;;;;;;40.80;30.17;;;10.20;99.90;;;;;;2085699;28;20462;-73
2024/02/12 04:44:58;;;;;;;43.85;32.22;;;10.20;99.90;;;;;;2086328;28;20713;-73
2024/02/12 04:45:58;;;;;;;44.20;31.90;;;10.20;99.90;;;;;;2085004;28;20617;-73
2024/02/12 04:47:00;;;;;;;45.83;32.70;;;10.20;99.90;;;;;;2081861;28;20072;-73
2024/02/12 04:48:00;;;;;;;41.90;31.30;;;10.20;99.90;;;;;;2083118;28;20097;-73
2024/02/12 04:49:01;;;;;;;40.72;30.38;;;10.20;99.90;;;;;;2083887;28;20040;-73
2024/02/12 04:50:01;;;;;;;46.08;31.17;;;10.20;99.90;;;;;;2083590;28;20032;-73
2024/02/12 04:51:02;;;;;;;39.67;29.75;;;10.20;99.90;;;;;;2085511;28;20025;-72
2024/02/12 04:52:04;;;;;;;45.72;30.77;;;10.20;99.90;;;;;;2076914;28;20029;-73
2024/02/12 04:53:05;;;;;;;47.13;33.13;;;10.20;99.90;;;;;;2075835;28;20406;-73
2024/02/12 04:54:06;;;;;;;43.90;31.35;;;10.20;99.90;;;;;;2083324;28;20025;-68
2024/02/12 04:55:10;;;;;;;41.13;29.55;;;10.20;99.90;;;;;;2082152;28;20017;-68
2024/02/12 04:56:10;;;;;;;41.72;31.13;;;10.20;99.90;;;;;;2084541;28;20025;-69
2024/02/12 04:57:11;;;;;;;43.38;31.10;;;10.20;99.90;;;;;;2083776;28;20068;-68
2024/02/12 04:58:12;;;;;;;44.40;31.23;;;10.20;99.90;;;;;;2084454;28;20486;-70
2024/02/12 04:59:15;;;;;;;43.42;31.13;;;10.20;99.90;;;;;;2086414;28;20415;-69
2024/02/12 05:00:16;;;;;;;43.70;29.42;;;10.20;99.90;;;;;;2082992;28;20513;-68
2024/02/12 05:01:17;;;;;;;40.45;29.20;;;10.20;99.90;;;;;;2083856;28;20815;-68
2024/02/12 05:02:17;;;;;;;41.05;29.83;;;10.20;99.90;;;;;;2079606;28;20074;-68
2024/02/12 05:03:18;;;;;;;39.78;29.80;;;10.20;99.90;;;;;;2078433;28;20022;-68
2024/02/12 05:04:19;;;;;;;39.30;28.98;;;10.20;99.90;;;;;;2084005;28;20032;-68
2024/02/12 05:05:19;;;;;;;39.80;30.35;;;10.20;99.90;;;;;;2082793;28;20021;-68
2024/02/12 05:06:20;;;;;;;42.83;29.08;;;10.10;99.90;;;;;;2084712;28;20032;-69
2024/02/12 05:07:21;;;;;;;50.55;29.77;;;10.10;99.90;;;;;;2083916;28;20033;-68
2024/02/12 05:08:21;;;;;;;38.95;29.05;;;10.10;99.90;;;;;;2075491;28;20103;-68
2024/02/12 05:09:22;;;;;;;39.35;28.42;;;10.10;99.90;;;;;;2075719;28;20021;-69
2024/02/12 05:10:23;;;;;;;34.60;28.42;;;10.20;99.90;;;;;;2084892;28;20696;-68
2024/02/12 05:11:25;;;;;;;41.33;29.15;;;10.10;99.90;;;;;;2083307;28;20375;-68
2024/02/12 05:12:28;;;;;;;37.63;28.25;;;10.10;99.90;;;;;;2085666;28;20029;-68
2024/02/12 05:13:29;;;;;;;39.80;27.77;;;10.10;99.90;;;;;;2084048;28;20486;-68
2024/02/12 05:14:29;;;;;;;36.10;26.23;;;10.10;99.90;;;;;;2082961;28;20430;-68
2024/02/12 05:15:30;;;;;;;35.78;27.77;;;10.10;99.90;;;;;;2083108;28;20021;-68
2024/02/12 05:16:34;;;;;;;36.80;26.83;;;10.00;99.90;;;;;;2083580;28;20042;-69
2024/02/12 05:17:55;;;;;;;35.42;24.42;;;10.00;99.90;;;;;;2083393;28;20025;-69
2024/02/12 05:22:54;;;;;;;37.35;26.58;;;9.90;99.90;;;;;;2082645;28;20397;-68
2024/02/12 05:23:54;;;;;;;39.00;26.75;;;9.90;99.90;;;;;;2084050;28;20036;-69
2024/02/12 05:24:55;;;;;;;38.05;27.13;;;9.90;99.90;;;;;;2083679;28;20339;-69
2024/02/12 05:25:56;;;;;;;37.33;26.65;;;9.80;99.90;;;;;;2082986;28;20560;-68
2024/02/12 05:26:58;;;;;;;37.03;26.02;;;9.80;99.90;;;;;;2083836;28;20687;-68
2024/02/12 05:28:00;;;;;;;39.05;26.60;;;9.80;99.90;;;;;;2085013;28;20029;-68
2024/02/12 05:29:00;;;;;;;36.75;26.20;;;9.80;99.90;;;;;;2086630;28;20037;-68
2024/02/12 05:30:01;;;;;;;37.20;26.60;;;9.80;99.90;;;;;;2084557;28;20027;-68
2024/02/12 05:31:11;;;;;;;36.00;26.10;;;9.80;99.90;;;;;;2085382;28;20416;-69
2024/02/12 05:32:11;;;;;;;36.67;26.92;;;9.80;99.90;;;;;;2085396;28;20623;-69